CheckWX is a tool to help pilots better visualize weather data.  It is not intended as a substitute for an official pre-flight weather briefing.

11:31:11 UTC

EGVP METAR
Middle Wallop Airfield Airport
Middle Wallop, United Kingdom
Current

41 mins ago

EGVP 271050Z 19009KT 9999 SCT012 BKN018 08/07 Q1001 TEMPO FEW012 RMK GRN TEMPO WHT
Observed
Jan-27 @ 10:50 UTC
Wind
  • 190° at 9 KTS
Visibility
10,000+ meters
Flight Rules
MVFR
Cloud Levels
  • Scattered at 1,200' AGL
  • Broken at 1,800' AGL
Temperature
C / 46°F
Dewpoint
C / 45°F
Humidity
93%
Altimeter
29.56" Hg
Pressure
1000.92 hPa
Previous

1 hour ago

EGVP 271022Z 19008KT 9999 SCT009 SCT024 BKN220 08/06 Q1001 TEMPO FEW009 RMK GRN TEMPO WHT
Observed
Jan-27 @ 10:22 UTC
Wind
  • 190° at 8 KTS
Visibility
10,000+ meters
Flight Rules
VFR
Cloud Levels
  • Scattered at 900' AGL
  • Scattered at 2,400' AGL
  • Broken at 22,000' AGL
Temperature
C / 46°F
Dewpoint
C / 43°F
Humidity
87%
Altimeter
29.56" Hg
Pressure
1000.92 hPa
Previous

2 hours ago

EGVP 270950Z 17004KT 9999 FEW008 SCT024 08/06 Q1002 TEMPO SCT008 RMK WHT TEMPO GRN
Observed
Jan-27 @ 09:50 UTC
Wind
  • 170° at 4 KTS
Visibility
10,000+ meters
Flight Rules
VFR
Cloud Levels
  • Few at 800' AGL
  • Scattered at 2,400' AGL
Temperature
C / 46°F
Dewpoint
C / 43°F
Humidity
87%
Altimeter
29.59" Hg
Pressure
1001.92 hPa